createdAt,value
2019-04-03T00:03:16.014Z,4.74
2019-04-03T00:05:45.358Z,4.73
2019-04-03T00:08:14.650Z,4.73
2019-04-03T00:10:44.463Z,4.74
2019-04-03T00:13:13.743Z,4.76
2019-04-03T00:15:44.746Z,4.76
2019-04-03T00:18:16.039Z,4.77
2019-04-03T00:23:33.488Z,4.81
2019-04-03T00:26:02.770Z,4.63
2019-04-03T00:28:32.364Z,4.82
2019-04-03T00:31:01.672Z,4.37
2019-04-03T00:36:19.639Z,4.84
2019-04-03T00:41:43.904Z,4.86
2019-04-03T00:44:13.194Z,4.88
2019-04-03T00:46:42.775Z,4.87
2019-04-03T00:49:12.034Z,4.90
2019-04-03T00:51:41.468Z,4.90
2019-04-03T00:54:10.736Z,4.93
2019-04-03T00:56:40.136Z,4.92
2019-04-03T00:59:09.371Z,4.20
2019-04-03T01:01:38.995Z,5.01
2019-04-03T01:04:08.283Z,5.03
2019-04-03T01:06:37.956Z,5.07
2019-04-03T01:09:47.489Z,4.73
2019-04-03T01:12:17.070Z,5.12
2019-04-03T01:17:29.541Z,5.16
2019-04-03T01:19:58.876Z,5.18
2019-04-03T01:22:47.251Z,5.22
2019-04-03T01:25:16.850Z,5.23
2019-04-03T01:27:46.364Z,5.27
2019-04-03T01:30:16.037Z,5.29
2019-04-03T01:32:46.625Z,5.32
2019-04-03T01:35:17.383Z,5.33
2019-04-03T01:37:47.859Z,5.38
2019-04-03T01:40:57.777Z,5.40
2019-04-03T01:43:27.135Z,5.43
2019-04-03T01:45:56.954Z,5.44
2019-04-03T01:48:28.461Z,5.45
2019-04-03T01:50:59.556Z,5.10
2019-04-03T01:53:32.168Z,5.49
2019-04-03T01:56:00.957Z,5.51
2019-04-03T01:58:30.222Z,5.53
2019-04-03T02:01:00.141Z,5.59
2019-04-03T02:03:29.455Z,5.60
2019-04-03T02:05:59.003Z,5.62
2019-04-03T02:08:28.331Z,5.63
2019-04-03T02:10:57.880Z,5.66
2019-04-03T02:16:34.597Z,5.67
2019-04-03T02:19:03.880Z,5.71
2019-04-03T02:21:33.165Z,5.73
2019-04-03T02:24:02.480Z,5.72
2019-04-03T02:26:32.704Z,5.63
2019-04-03T02:29:14.033Z,5.72
2019-04-03T02:31:43.354Z,5.75
2019-04-03T02:34:12.716Z,5.76
2019-04-03T02:36:44.404Z,5.77
2019-04-03T02:39:13.068Z,5.76
2019-04-03T02:41:42.578Z,5.76
2019-04-03T02:44:51.908Z,5.77
2019-04-03T02:47:22.836Z,5.79
2019-04-03T02:49:52.400Z,5.78
2019-04-03T02:52:25.366Z,5.80
2019-04-03T02:55:34.199Z,5.83
2019-04-03T02:58:03.735Z,5.81
2019-04-03T03:00:34.910Z,5.83
2019-04-03T03:03:04.220Z,5.85
2019-04-03T03:05:33.625Z,5.85
2019-04-03T03:08:03.043Z,5.86
2019-04-03T03:11:12.066Z,5.88
2019-04-03T03:13:41.346Z,5.89
2019-04-03T03:16:10.989Z,5.90
2019-04-03T03:24:38.725Z,5.88
2019-04-03T03:30:37.179Z,5.90
2019-04-03T03:32:49.499Z,5.52
2019-04-03T03:35:43.971Z,5.92
2019-04-03T03:38:10.719Z,5.93
2019-04-03T03:40:59.317Z,5.96
2019-04-03T03:43:29.167Z,5.96
2019-04-03T03:46:19.107Z,5.95
2019-04-03T03:52:09.949Z,5.97
2019-04-03T03:54:59.734Z,5.97
2019-04-03T04:00:52.257Z,5.99
2019-04-03T04:03:21.628Z,5.62
2019-04-03T04:05:53.747Z,6.01
2019-04-03T04:08:22.018Z,5.97
2019-04-03T04:11:31.913Z,6.03
2019-04-03T04:14:02.099Z,6.06
2019-04-03T04:16:50.387Z,5.91
2019-04-03T04:19:40.745Z,6.10
2019-04-03T04:22:10.218Z,6.12
2019-04-03T04:24:40.055Z,6.14
2019-04-03T04:27:09.360Z,6.16
2019-04-03T04:29:41.082Z,6.17
2019-04-03T04:32:10.091Z,6.18
2019-04-03T04:34:39.587Z,6.19
2019-04-03T04:37:09.034Z,6.21
2019-04-03T04:39:39.948Z,6.23
2019-04-03T04:42:09.258Z,6.24
2019-04-03T04:44:38.902Z,6.27
2019-04-03T04:47:09.661Z,6.28
2019-04-03T04:49:38.942Z,6.25
2019-04-03T04:52:08.323Z,6.28
2019-04-03T04:54:37.637Z,6.30
2019-04-03T05:00:21.501Z,6.30
2019-04-03T05:02:51.490Z,6.30
2019-04-03T05:05:21.976Z,6.17
2019-04-03T05:07:51.392Z,6.32
2019-04-03T05:10:20.823Z,6.32
2019-04-03T05:12:50.371Z,6.34
2019-04-03T05:15:23.270Z,6.36
2019-04-03T05:17:50.839Z,6.36
2019-04-03T05:22:55.709Z,6.37
2019-04-03T05:25:25.965Z,6.37
2019-04-03T05:27:55.605Z,6.38
2019-04-03T05:30:44.259Z,6.38
2019-04-03T05:33:34.065Z,6.39
2019-04-03T05:36:05.081Z,6.42
2019-04-03T05:38:37.317Z,6.43
2019-04-03T05:41:27.455Z,6.45
2019-04-03T05:44:14.625Z,6.46
2019-04-03T05:46:43.955Z,6.48
2019-04-03T05:49:13.284Z,6.52
2019-04-03T05:51:42.602Z,6.54
2019-04-03T05:54:30.877Z,6.57
2019-04-03T05:57:00.225Z,6.60
2019-04-03T05:59:32.675Z,6.59
2019-04-03T06:02:13.528Z,6.66
2019-04-03T06:04:31.847Z,6.68
2019-04-03T06:07:01.306Z,6.71
2019-04-03T06:09:31.051Z,6.70
2019-04-03T06:12:00.355Z,6.71
2019-04-03T06:14:29.896Z,6.74
2019-04-03T06:17:18.172Z,6.77
2019-04-03T06:19:47.671Z,6.80
2019-04-03T06:22:21.530Z,6.85
2019-04-03T06:24:49.787Z,6.88
2019-04-03T06:27:19.987Z,6.94
2019-04-03T06:29:53.474Z,6.97
2019-04-03T06:35:10.134Z,7.06
2019-04-03T06:37:39.579Z,7.07
2019-04-03T06:40:08.953Z,7.10
2019-04-03T06:42:38.442Z,7.11
2019-04-03T06:45:28.220Z,7.13
2019-04-03T06:47:57.529Z,7.16
2019-04-03T06:50:26.900Z,7.15
2019-04-03T06:52:56.390Z,7.18
2019-04-03T06:55:27.264Z,7.19
2019-04-03T06:57:56.579Z,7.05
2019-04-03T07:00:25.987Z,7.21
2019-04-03T07:03:14.373Z,6.89
2019-04-03T07:05:43.686Z,7.23
2019-04-03T07:08:13.109Z,7.30
2019-04-03T07:16:06.029Z,7.35
2019-04-03T07:18:36.988Z,7.38
2019-04-03T07:23:54.724Z,7.46
2019-04-03T07:26:43.019Z,7.50
2019-04-03T07:29:15.804Z,7.52
2019-04-03T07:31:43.457Z,7.55
2019-04-03T07:34:13.077Z,7.59
2019-04-03T07:36:44.693Z,7.65
2019-04-03T07:39:32.661Z,7.72
2019-04-03T07:42:03.725Z,7.80
2019-04-03T07:44:33.012Z,7.92
2019-04-03T07:47:04.277Z,7.94
2019-04-03T07:49:33.746Z,7.98
2019-04-03T07:52:22.215Z,7.99
2019-04-03T07:54:52.870Z,8.03
2019-04-03T07:57:22.352Z,8.06
2019-04-03T08:00:11.143Z,8.08
2019-04-03T08:02:45.198Z,8.15
2019-04-03T08:05:12.080Z,8.24
2019-04-03T08:10:49.383Z,8.65
2019-04-03T08:13:18.611Z,8.85
2019-04-03T08:15:48.858Z,8.97
2019-04-03T08:18:20.422Z,9.16
2019-04-03T08:20:49.374Z,9.31
2019-04-03T08:23:18.724Z,9.49
2019-04-03T08:25:49.098Z,9.58
2019-04-03T08:28:19.587Z,9.22
2019-04-03T08:31:11.492Z,9.54
2019-04-03T08:33:41.021Z,9.46
2019-04-03T08:36:22.831Z,9.46
2019-04-03T08:38:44.067Z,9.57
2019-04-03T08:43:48.617Z,9.60
2019-04-03T08:46:18.271Z,9.61
2019-04-03T08:48:47.586Z,9.76
2019-04-03T08:51:36.413Z,9.91
2019-04-03T08:54:09.817Z,9.91
2019-04-03T08:56:38.012Z,10.07
2019-04-03T09:04:59.430Z,10.14
2019-04-03T09:07:51.834Z,10.28
2019-04-03T09:10:24.599Z,10.28
2019-04-03T09:15:46.300Z,10.43
2019-04-03T09:18:15.663Z,10.57
2019-04-03T09:20:45.495Z,10.70
2019-04-03T09:23:16.087Z,10.84
2019-04-03T09:25:45.450Z,11.01
2019-04-03T09:28:33.897Z,11.14
2019-04-03T09:31:03.523Z,11.24
2019-04-03T09:33:53.082Z,11.36
2019-04-03T09:36:22.575Z,11.42
2019-04-03T09:38:51.855Z,11.44
2019-04-03T09:41:21.520Z,11.50
2019-04-03T09:43:53.401Z,11.56
2019-04-03T09:46:21.956Z,11.67
2019-04-03T09:48:51.629Z,11.70
2019-04-03T09:51:41.440Z,11.62
2019-04-03T09:54:10.878Z,11.56
2019-04-03T09:56:54.857Z,11.57
2019-04-03T09:59:11.323Z,11.71
2019-04-03T10:01:40.751Z,11.78
2019-04-03T10:04:10.168Z,11.92
2019-04-03T10:06:39.547Z,12.04
2019-04-03T10:09:11.751Z,12.11
2019-04-03T10:11:40.168Z,12.16
2019-04-03T10:14:09.488Z,12.22
2019-04-03T10:16:38.759Z,12.36
2019-04-03T10:19:08.057Z,12.37
2019-04-03T10:21:37.445Z,11.83
2019-04-03T10:24:06.986Z,12.47
2019-04-03T10:26:39.216Z,12.51
2019-04-03T10:29:07.512Z,12.56
2019-04-03T10:31:37.256Z,12.59
2019-04-03T10:34:25.844Z,12.68
2019-04-03T10:36:55.162Z,12.84
2019-04-03T10:39:24.550Z,12.89
2019-04-03T10:41:53.989Z,12.96
2019-04-03T10:44:23.357Z,13.08
2019-04-03T10:46:52.786Z,13.16
2019-04-03T10:49:22.125Z,13.20
2019-04-03T10:52:12.643Z,13.32
2019-04-03T10:54:41.482Z,13.48
2019-04-03T10:57:10.788Z,13.51
2019-04-03T10:59:40.252Z,13.45
2019-04-03T11:02:09.673Z,13.66
2019-04-03T11:04:38.998Z,13.78
2019-04-03T11:07:27.190Z,13.77
2019-04-03T11:09:56.488Z,13.87
2019-04-03T11:12:25.915Z,13.93
2019-04-03T11:14:55.247Z,13.96
2019-04-03T11:17:44.066Z,13.96
2019-04-03T11:20:54.066Z,14.04
2019-04-03T11:23:36.465Z,13.98
2019-04-03T11:25:54.645Z,13.97
2019-04-03T11:28:42.959Z,13.92
2019-04-03T11:31:23.925Z,13.93
2019-04-03T11:33:45.879Z,13.94
2019-04-03T11:36:14.615Z,14.02
2019-04-03T11:38:43.904Z,14.11
2019-04-03T11:41:32.360Z,14.13
2019-04-03T11:44:01.869Z,13.65
2019-04-03T11:46:31.185Z,14.44
2019-04-03T11:49:01.132Z,14.51
2019-04-03T11:51:33.319Z,14.55
2019-04-03T11:54:01.474Z,14.47
2019-04-03T11:56:50.069Z,14.57
2019-04-03T11:59:22.775Z,14.72
2019-04-03T12:01:51.807Z,14.90
2019-04-03T12:04:21.282Z,14.96
2019-04-03T12:06:52.841Z,15.08
2019-04-03T12:09:23.425Z,15.04
2019-04-03T12:11:54.533Z,14.98
2019-04-03T12:14:23.741Z,15.08
2019-04-03T12:16:53.021Z,15.18
2019-04-03T12:19:41.334Z,15.18
2019-04-03T12:22:10.945Z,15.34
2019-04-03T12:24:40.496Z,15.41
2019-04-03T12:27:10.007Z,15.42
2019-04-03T12:29:39.646Z,15.38
2019-04-03T12:32:09.860Z,15.38
2019-04-03T12:34:40.460Z,15.46
2019-04-03T12:37:29.012Z,15.38
2019-04-03T12:40:00.916Z,15.40
2019-04-03T12:42:29.965Z,15.28
2019-04-03T12:44:59.797Z,15.26
2019-04-03T12:50:06.575Z,15.19
2019-04-03T12:52:35.918Z,15.55
2019-04-03T12:55:25.961Z,15.57
2019-04-03T12:58:14.608Z,15.54
2019-04-03T13:00:46.179Z,15.63
2019-04-03T13:03:16.825Z,15.56
2019-04-03T13:05:48.593Z,15.65
2019-04-03T13:08:19.598Z,15.70
2019-04-03T13:10:49.247Z,15.65
2019-04-03T13:13:19.247Z,15.69
2019-04-03T13:18:55.800Z,15.66
2019-04-03T13:21:25.093Z,15.78
2019-04-03T13:23:54.566Z,15.89
2019-04-03T13:26:24.951Z,15.95
2019-04-03T13:28:55.452Z,15.99
2019-04-03T13:31:26.277Z,16.05
2019-04-03T13:36:32.543Z,15.80
2019-04-03T13:39:02.148Z,15.98
2019-04-03T13:41:34.148Z,16.02
2019-04-03T13:44:02.734Z,16.04
2019-04-03T13:46:32.489Z,16.01
2019-04-03T13:49:03.606Z,16.06
2019-04-03T13:51:34.369Z,15.82
2019-04-03T13:54:06.974Z,16.23
2019-04-03T13:56:34.942Z,16.33
2019-04-03T13:59:04.689Z,16.25
2019-04-03T14:01:35.782Z,16.14
2019-04-03T14:04:05.090Z,16.13
2019-04-03T14:06:36.235Z,16.11
2019-04-03T14:09:50.646Z,16.16
2019-04-03T14:12:17.969Z,16.15
2019-04-03T14:14:47.921Z,16.19
2019-04-03T14:17:18.784Z,16.18
2019-04-03T14:19:51.571Z,16.18
2019-04-03T14:22:20.691Z,15.56
2019-04-03T14:24:52.533Z,16.18
2019-04-03T14:27:24.684Z,16.11
2019-04-03T14:29:52.263Z,16.20
2019-04-03T14:32:22.556Z,16.24
2019-04-03T14:35:40.480Z,16.29
2019-04-03T14:37:43.089Z,16.23
2019-04-03T14:40:51.721Z,16.24
2019-04-03T14:43:22.363Z,15.95
2019-04-03T14:45:52.102Z,15.99
2019-04-03T14:48:21.988Z,15.97
2019-04-03T14:51:11.347Z,15.97
2019-04-03T14:53:41.616Z,16.03
2019-04-03T14:56:11.064Z,16.03
2019-04-03T14:58:59.858Z,15.48
2019-04-03T15:01:29.278Z,15.93
2019-04-03T15:04:00.746Z,15.89
2019-04-03T15:06:30.090Z,15.82
2019-04-03T15:08:59.353Z,15.77
2019-04-03T15:11:28.669Z,15.81
2019-04-03T15:13:58.369Z,15.71
2019-04-03T15:16:31.803Z,15.64
2019-04-03T15:21:35.621Z,15.61
2019-04-03T15:27:00.756Z,15.54
2019-04-03T15:29:31.814Z,15.19
2019-04-03T15:34:36.385Z,15.45
2019-04-03T15:37:06.148Z,15.40
2019-04-03T15:39:36.824Z,15.33
2019-04-03T15:42:06.695Z,15.28
2019-04-03T15:44:37.480Z,15.24
2019-04-03T15:47:09.245Z,15.23
2019-04-03T15:49:59.213Z,15.23
2019-04-03T15:52:49.301Z,15.21
2019-04-03T15:55:57.229Z,15.17
2019-04-03T15:58:27.263Z,15.11
2019-04-03T16:00:58.342Z,15.13
2019-04-03T16:03:27.664Z,15.13
2019-04-03T16:05:57.582Z,15.11
2019-04-03T16:08:28.808Z,15.10
2019-04-03T16:10:58.847Z,15.08
2019-04-03T16:13:48.136Z,15.05
2019-04-03T16:16:18.380Z,15.09
2019-04-03T16:21:23.799Z,14.95
2019-04-03T16:24:13.428Z,14.47
2019-04-03T16:26:43.913Z,14.90
2019-04-03T16:29:13.254Z,14.90
2019-04-03T16:31:42.869Z,14.86
2019-04-03T16:34:13.309Z,14.81
2019-04-03T16:36:44.146Z,14.76
2019-04-03T16:39:17.423Z,14.72
2019-04-03T16:41:45.911Z,14.68
2019-04-03T16:44:15.277Z,14.65
2019-04-03T16:46:44.568Z,14.60
2019-04-03T16:49:13.973Z,14.56
2019-04-03T16:51:44.728Z,14.52
2019-04-03T16:54:34.394Z,14.47
2019-04-03T16:57:04.539Z,14.44
2019-04-03T16:59:36.170Z,14.39
2019-04-03T17:02:24.752Z,14.34
2019-04-03T17:04:55.192Z,14.30
2019-04-03T17:07:24.543Z,14.00
2019-04-03T17:09:54.090Z,14.20
2019-04-03T17:13:02.732Z,14.12
2019-04-03T17:15:35.117Z,14.07
2019-04-03T17:18:03.482Z,14.01
2019-04-03T17:20:33.292Z,13.96
2019-04-03T17:23:05.353Z,13.92
2019-04-03T17:25:45.791Z,13.84
2019-04-03T17:28:09.426Z,13.77
2019-04-03T17:30:38.553Z,13.73
2019-04-03T17:33:08.362Z,13.68
2019-04-03T17:35:39.163Z,13.64
2019-04-03T17:38:27.699Z,13.03
2019-04-03T17:40:57.016Z,13.48
2019-04-03T17:46:34.051Z,13.35
2019-04-03T17:49:03.520Z,13.30
2019-04-03T17:51:53.392Z,13.22
2019-04-03T17:54:22.834Z,13.15
2019-04-03T17:57:13.447Z,13.05
2019-04-03T17:59:45.053Z,12.98
2019-04-03T18:02:14.471Z,12.90
2019-04-03T18:04:46.113Z,12.88
2019-04-03T18:10:29.916Z,12.78
2019-04-03T18:12:59.257Z,12.72
2019-04-03T18:15:28.752Z,12.63
2019-04-03T18:18:17.251Z,12.55
2019-04-03T18:20:46.803Z,12.51
2019-04-03T18:23:35.147Z,12.41
2019-04-03T18:28:59.890Z,12.34
2019-04-03T18:34:51.293Z,12.27
2019-04-03T18:37:21.040Z,11.88
2019-04-03T18:39:51.523Z,12.20
2019-04-03T18:42:21.419Z,12.19
2019-04-03T18:44:50.884Z,12.17
2019-04-03T18:47:41.602Z,12.14
2019-04-03T18:50:10.731Z,12.13
2019-04-03T18:52:40.166Z,12.11
2019-04-03T18:55:09.950Z,12.08
2019-04-03T18:57:39.250Z,12.04
2019-04-03T19:00:09.877Z,11.98
2019-04-03T19:02:39.368Z,11.93
2019-04-03T19:08:18.120Z,11.85
2019-04-03T19:11:09.649Z,11.73
2019-04-03T19:13:38.818Z,11.72
2019-04-03T19:19:07.454Z,11.56
2019-04-03T19:21:28.695Z,11.47
2019-04-03T19:23:59.166Z,11.41
2019-04-03T19:26:30.044Z,11.38
2019-04-03T19:28:59.624Z,11.32
2019-04-03T19:31:28.987Z,11.32
2019-04-03T19:33:58.327Z,11.32
2019-04-03T19:36:29.550Z,11.32
2019-04-03T19:38:58.677Z,11.29
2019-04-03T19:41:28.087Z,11.27
2019-04-03T19:43:57.450Z,11.24
2019-04-03T19:46:26.766Z,11.21
2019-04-03T19:48:56.768Z,11.18
2019-04-03T19:51:27.420Z,10.81
2019-04-03T19:56:45.013Z,11.11
2019-04-03T19:59:14.344Z,11.12
2019-04-03T20:01:43.694Z,11.11
2019-04-03T20:04:15.787Z,11.09
2019-04-03T20:06:44.029Z,11.09
2019-04-03T20:09:13.583Z,11.08
2019-04-03T20:11:42.886Z,11.08
2019-04-03T20:14:12.343Z,11.05
2019-04-03T20:16:41.715Z,11.07
2019-04-03T20:19:11.451Z,11.05
2019-04-03T20:24:16.126Z,11.05
2019-04-03T20:26:46.668Z,11.02
2019-04-03T20:29:16.471Z,11.01
2019-04-03T20:31:45.987Z,10.99
2019-04-03T20:34:15.294Z,10.97
2019-04-03T20:36:44.801Z,10.96
2019-04-03T20:39:14.332Z,10.93
2019-04-03T20:42:23.030Z,10.89
2019-04-03T20:44:52.425Z,10.87
2019-04-03T20:47:22.219Z,10.80
2019-04-03T20:49:51.656Z,10.79
2019-04-03T20:52:21.017Z,10.74
2019-04-03T20:54:52.841Z,10.71
2019-04-03T20:57:22.046Z,10.70
2019-04-03T21:00:30.659Z,10.68
2019-04-03T21:08:31.557Z,10.60
2019-04-03T21:11:02.263Z,10.58
2019-04-03T21:13:32.039Z,10.56
2019-04-03T21:16:32.550Z,10.52
2019-04-03T21:18:51.833Z,10.49
2019-04-03T21:21:21.133Z,10.46
2019-04-03T21:23:52.420Z,10.45
2019-04-03T21:26:21.846Z,10.42
2019-04-03T21:28:51.183Z,10.40
2019-04-03T21:31:20.647Z,10.13
2019-04-03T21:34:08.991Z,10.33
2019-04-03T21:36:38.791Z,10.35
2019-04-03T21:39:09.049Z,10.27
2019-04-03T21:41:38.395Z,10.29
2019-04-03T21:44:07.868Z,10.26
2019-04-03T21:46:39.613Z,10.24
2019-04-03T21:49:10.900Z,10.21
2019-04-03T21:51:40.177Z,10.19
2019-04-03T21:54:09.581Z,10.17
2019-04-03T21:56:38.886Z,10.05
2019-04-03T21:59:09.008Z,10.05
2019-04-03T22:01:39.359Z,10.09
2019-04-03T22:04:08.646Z,10.07
2019-04-03T22:06:57.768Z,10.04
2019-04-03T22:09:28.818Z,10.01
2019-04-03T22:12:18.584Z,9.97
2019-04-03T22:14:47.873Z,9.97
2019-04-03T22:17:36.213Z,9.91
2019-04-03T22:20:24.557Z,9.89
2019-04-03T22:22:53.906Z,9.89
2019-04-03T22:25:23.187Z,9.58
2019-04-03T22:27:52.570Z,9.82
2019-04-03T22:30:22.328Z,9.80
2019-04-03T22:32:54.005Z,9.79
2019-04-03T22:35:23.918Z,9.76
2019-04-03T22:37:53.695Z,9.75
2019-04-03T22:40:42.210Z,9.71
2019-04-03T22:43:11.537Z,9.71
2019-04-03T22:45:41.099Z,9.68
2019-04-03T22:48:10.395Z,9.67
2019-04-03T22:50:40.081Z,9.64
2019-04-03T22:53:10.670Z,9.62
2019-04-03T22:55:59.481Z,9.56
2019-04-03T22:58:29.094Z,9.15
2019-04-03T23:00:59.201Z,9.10
2019-04-03T23:03:29.594Z,9.39
2019-04-03T23:05:58.953Z,9.36
2019-04-03T23:08:28.411Z,9.31
2019-04-03T23:11:39.482Z,9.26
2019-04-03T23:14:08.905Z,9.20
2019-04-03T23:16:38.304Z,9.17
2019-04-03T23:19:07.632Z,9.14
2019-04-03T23:21:37.001Z,9.09
2019-04-03T23:24:06.326Z,9.06
2019-04-03T23:26:35.770Z,9.00
2019-04-03T23:29:05.788Z,8.94
2019-04-03T23:31:54.006Z,8.90
2019-04-03T23:34:23.340Z,8.87
2019-04-03T23:36:54.271Z,8.83
2019-04-03T23:39:23.982Z,8.79
2019-04-03T23:41:53.288Z,8.77
2019-04-03T23:44:23.078Z,8.72
2019-04-03T23:46:52.426Z,8.68
2019-04-03T23:49:21.944Z,8.62
2019-04-03T23:51:51.244Z,8.58
2019-04-03T23:54:20.933Z,8.53
2019-04-03T23:56:50.204Z,8.50
2019-04-03T23:59:19.848Z,8.48
